createdAt,value
2022-09-22T00:01:32.829Z,101031.41
2022-09-22T00:04:04.578Z,101031.41
2022-09-22T00:06:39.023Z,101021.00
2022-09-22T00:09:10.692Z,101028.22
2022-09-22T00:11:47.622Z,101025.72
2022-09-22T00:14:21.582Z,101024.72
2022-09-22T00:17:00.577Z,101038.13
2022-09-22T00:19:31.216Z,101036.44
2022-09-22T00:21:59.538Z,101031.91
2022-09-22T00:24:28.372Z,101033.75
2022-09-22T00:26:57.865Z,101033.75
2022-09-22T00:29:27.419Z,101037.78
2022-09-22T00:31:55.998Z,101037.97
2022-09-22T00:34:26.515Z,101027.75
2022-09-22T00:36:55.153Z,101034.59
2022-09-22T00:39:23.248Z,101034.97
2022-09-22T00:41:52.883Z,101038.13
2022-09-22T00:44:26.516Z,101032.44
2022-09-22T00:47:03.793Z,101031.06
2022-09-22T00:49:46.793Z,101028.19
2022-09-22T00:52:22.398Z,101023.38
2022-09-22T00:54:52.731Z,101035.44
2022-09-22T00:57:24.621Z,101024.22
2022-09-22T00:59:54.548Z,101033.38
2022-09-22T01:02:22.457Z,101026.47
2022-09-22T01:04:52.151Z,101033.72
2022-09-22T01:07:23.120Z,101033.72
2022-09-22T01:09:50.979Z,101034.22
2022-09-22T01:12:19.963Z,101031.72
2022-09-22T01:15:05.430Z,101036.06
2022-09-22T01:18:06.575Z,101031.03
2022-09-22T01:20:53.028Z,101020.97
2022-09-22T01:23:35.918Z,101030.84
2022-09-22T01:26:35.901Z,101032.34
2022-09-22T01:29:31.733Z,101028.66
2022-09-22T01:32:12.062Z,101031.16
2022-09-22T01:34:52.364Z,101027.97
2022-09-22T01:37:25.309Z,101032.19
2022-09-22T01:40:01.369Z,101028.66
2022-09-22T01:42:42.165Z,101031.03
2022-09-22T01:45:14.379Z,101032.34
2022-09-22T01:47:51.136Z,101023.97
2022-09-22T01:50:25.667Z,101030.66
2022-09-22T01:52:59.445Z,101041.09
2022-09-22T01:55:37.599Z,101033.72
2022-09-22T01:58:12.645Z,101040.41
2022-09-22T02:00:47.947Z,101035.03
2022-09-22T02:03:45.296Z,101031.84
2022-09-22T02:06:18.512Z,101032.69
2022-09-22T02:08:56.359Z,101034.91
2022-09-22T02:11:24.595Z,101040.59
2022-09-22T02:13:52.840Z,101036.22
2022-09-22T02:16:22.777Z,101030.66
2022-09-22T02:18:56.331Z,101034.19
2022-09-22T02:21:28.080Z,101028.97
2022-09-22T02:23:56.094Z,101033.34
2022-09-22T02:26:28.623Z,101039.41
2022-09-22T02:29:01.231Z,101035.34
2022-09-22T02:31:33.354Z,101037.34
2022-09-22T02:34:03.002Z,101030.63
2022-09-22T02:36:42.094Z,101030.97
2022-09-22T02:39:23.826Z,101035.03
2022-09-22T02:41:54.245Z,101028.97
2022-09-22T02:44:36.079Z,101037.34
2022-09-22T02:47:12.835Z,101040.53
2022-09-22T02:49:43.776Z,101043.41
2022-09-22T02:52:13.894Z,101035.31
2022-09-22T02:54:41.558Z,101035.81
2022-09-22T02:57:10.043Z,101031.63
2022-09-22T02:59:37.827Z,101026.56
2022-09-22T03:02:06.119Z,101029.41
2022-09-22T03:04:34.385Z,101027.25
2022-09-22T03:07:02.133Z,101029.41
2022-09-22T03:09:29.947Z,101029.25
2022-09-22T03:11:57.583Z,101023.88
2022-09-22T03:14:25.572Z,101019.19
2022-09-22T03:16:53.461Z,101020.38
2022-09-22T03:19:22.168Z,101015.53
2022-09-22T03:21:49.604Z,101020.53
2022-09-22T03:24:17.294Z,101021.06
2022-09-22T03:26:44.989Z,101027.28
2022-09-22T03:29:12.438Z,101027.09
2022-09-22T03:31:39.929Z,101026.41
2022-09-22T03:34:08.300Z,101026.91
2022-09-22T03:36:36.202Z,101036.47
2022-09-22T03:39:04.427Z,101030.25
2022-09-22T03:41:32.302Z,101024.06
2022-09-22T03:44:00.035Z,101026.91
2022-09-22T03:46:27.780Z,101032.94
2022-09-22T03:48:55.575Z,101029.94
2022-09-22T03:51:23.341Z,101037.00
2022-09-22T03:53:50.969Z,101047.03
2022-09-22T03:56:18.371Z,101043.66
2022-09-22T03:58:46.174Z,101051.03
2022-09-22T04:01:13.789Z,101047.03
2022-09-22T04:03:41.283Z,101055.75
2022-09-22T04:06:10.455Z,101053.06
2022-09-22T04:08:39.433Z,101057.44
2022-09-22T04:11:07.687Z,101052.38
2022-09-22T04:13:36.981Z,101045.34
2022-09-22T04:16:06.144Z,101048.72
2022-09-22T04:18:34.129Z,101049.72
2022-09-22T04:21:02.021Z,101048.72
2022-09-22T04:23:30.875Z,101056.25
2022-09-22T04:30:01.016Z,101050.88
2022-09-22T04:32:28.650Z,101045.72
2022-09-22T04:34:56.271Z,101043.88
2022-09-22T04:37:24.381Z,101048.25
2022-09-22T04:39:54.505Z,101059.13
2022-09-22T04:42:22.268Z,101053.13
2022-09-22T04:44:49.907Z,101055.50
2022-09-22T04:47:18.267Z,101052.13
2022-09-22T04:49:46.482Z,101048.13
2022-09-22T04:52:14.742Z,101053.69
2022-09-22T04:54:42.296Z,101064.59
2022-09-22T04:57:10.235Z,101063.28
2022-09-22T04:59:46.807Z,101069.66
2022-09-22T05:02:14.868Z,101067.00
2022-09-22T05:04:44.129Z,101069.34
2022-09-22T05:07:15.185Z,101065.97
2022-09-22T05:09:44.392Z,101069.84
2022-09-22T05:12:12.073Z,101079.25
2022-09-22T05:14:40.287Z,101086.09
2022-09-22T05:17:08.031Z,101086.75
2022-09-22T05:19:36.612Z,101080.53
2022-09-22T05:22:04.362Z,101065.59
2022-09-22T05:24:32.704Z,101074.63
2022-09-22T05:27:00.538Z,101069.88
2022-09-22T05:29:28.262Z,101068.19
2022-09-22T05:31:56.007Z,101071.84
2022-09-22T05:34:23.772Z,101080.03
2022-09-22T05:36:51.326Z,101078.97
2022-09-22T05:39:19.210Z,101081.75
2022-09-22T05:41:50.053Z,101076.69
2022-09-22T05:44:17.779Z,101072.56
2022-09-22T05:46:46.968Z,101079.19
2022-09-22T05:49:14.611Z,101075.56
2022-09-22T05:51:42.472Z,101069.81
2022-09-22T05:54:10.330Z,101075.44
2022-09-22T05:56:39.394Z,101073.78
2022-09-22T05:59:07.120Z,101077.31
2022-09-22T06:01:38.634Z,101066.41
2022-09-22T06:04:06.622Z,101070.53
2022-09-22T06:06:34.440Z,101079.34
2022-09-22T06:09:02.848Z,101087.09
2022-09-22T06:11:31.404Z,101081.09
2022-09-22T06:13:59.275Z,101091.41
2022-09-22T06:16:26.998Z,101093.09
2022-09-22T06:18:55.258Z,101078.56
2022-09-22T06:21:25.077Z,101077.91
2022-09-22T06:23:53.355Z,101075.56
2022-09-22T06:26:21.080Z,101077.97
2022-09-22T06:28:50.223Z,101078.78
2022-09-22T06:31:17.892Z,101078.16
2022-09-22T06:33:48.911Z,101073.19
2022-09-22T06:36:23.567Z,101070.84
2022-09-22T06:41:34.296Z,101070.47
2022-09-22T06:44:02.879Z,101061.97
2022-09-22T06:46:34.597Z,101064.94
2022-09-22T06:49:03.024Z,101071.72
2022-09-22T06:51:33.220Z,101069.25
2022-09-22T06:54:09.976Z,101073.53
2022-09-22T06:56:43.039Z,101069.88
2022-09-22T06:59:13.176Z,101067.50
2022-09-22T07:01:42.261Z,101066.13
2022-09-22T07:04:12.061Z,101065.69
2022-09-22T07:06:40.826Z,101074.78
2022-09-22T07:09:09.648Z,101083.22
2022-09-22T07:11:40.945Z,101080.72
2022-09-22T07:14:22.037Z,101073.66
2022-09-22T07:16:53.095Z,101077.44
2022-09-22T07:19:20.954Z,101077.44
2022-09-22T07:21:48.665Z,101069.16
2022-09-22T07:24:17.058Z,101076.66
2022-09-22T07:26:46.926Z,101071.69
2022-09-22T07:29:16.892Z,101065.84
2022-09-22T07:31:44.810Z,101071.50
2022-09-22T07:34:13.806Z,101064.63
2022-09-22T07:36:41.806Z,101060.22
2022-09-22T07:39:11.340Z,101052.50
2022-09-22T07:41:43.816Z,101065.25
2022-09-22T07:44:32.401Z,101052.91
2022-09-22T07:47:01.245Z,101053.69
2022-09-22T07:49:29.688Z,101054.31
2022-09-22T07:51:57.890Z,101050.25
2022-09-22T07:54:27.697Z,101044.16
2022-09-22T07:57:05.654Z,101043.25
2022-09-22T07:59:34.179Z,101035.72
2022-09-22T08:02:02.134Z,101034.31
2022-09-22T08:04:32.094Z,101023.78
2022-09-22T08:07:00.455Z,101017.84
2022-09-22T08:09:29.848Z,101014.41
2022-09-22T08:11:57.674Z,101010.19
2022-09-22T08:14:26.516Z,101001.59
2022-09-22T08:16:54.212Z,100995.66
2022-09-22T08:19:25.170Z,100996.59
2022-09-22T08:21:54.616Z,100998.34
2022-09-22T08:24:23.782Z,100995.69
2022-09-22T08:26:56.514Z,100996.16
2022-09-22T08:29:25.296Z,100998.31
2022-09-22T08:31:55.607Z,100998.78
2022-09-22T08:34:24.034Z,100998.41
2022-09-22T08:36:52.655Z,101003.31
2022-09-22T08:39:20.456Z,101010.41
2022-09-22T08:42:29.950Z,101002.81
2022-09-22T08:45:11.719Z,100998.78
2022-09-22T08:48:08.423Z,100996.28
2022-09-22T08:51:08.944Z,100984.38
2022-09-22T08:53:45.521Z,100991.00
2022-09-22T08:56:30.703Z,100981.81
2022-09-22T08:59:27.621Z,100991.41
2022-09-22T09:02:32.999Z,100991.44
2022-09-22T09:05:03.861Z,100990.63
2022-09-22T09:08:00.584Z,100995.31
2022-09-22T09:10:56.665Z,100992.34
2022-09-22T09:13:37.851Z,100990.38
2022-09-22T09:16:26.027Z,100999.63
2022-09-22T09:19:04.567Z,100995.69
2022-09-22T09:21:36.743Z,100997.69
2022-09-22T09:27:12.775Z,100993.97
2022-09-22T09:29:51.694Z,101011.94
2022-09-22T09:32:36.887Z,101021.00
2022-09-22T09:35:12.686Z,101014.03
2022-09-22T09:37:52.883Z,101021.84
2022-09-22T09:40:22.412Z,101017.59
2022-09-22T09:43:04.051Z,101017.38
2022-09-22T09:45:53.768Z,101021.41
2022-09-22T09:48:35.434Z,101023.53
2022-09-22T09:51:11.792Z,101020.00
2022-09-22T09:53:46.660Z,101007.13
2022-09-22T09:56:24.986Z,101015.94
2022-09-22T09:59:20.993Z,101007.75
2022-09-22T10:01:51.227Z,100999.66
2022-09-22T10:04:32.698Z,101009.28
2022-09-22T10:07:16.953Z,101000.03
2022-09-22T10:09:51.259Z,100993.72
2022-09-22T10:12:31.288Z,100993.72
2022-09-22T10:15:01.613Z,100984.41
2022-09-22T10:17:41.105Z,100984.47
2022-09-22T10:20:26.532Z,100976.16
2022-09-22T10:22:55.995Z,100969.59
2022-09-22T10:25:33.305Z,100974.47
2022-09-22T10:28:17.072Z,100968.53
2022-09-22T10:30:59.165Z,100966.75
2022-09-22T10:33:28.630Z,100968.19
2022-09-22T10:36:07.861Z,100964.03
2022-09-22T10:38:43.973Z,100967.38
2022-09-22T10:41:18.115Z,100961.91
2022-09-22T10:44:15.555Z,100957.88
2022-09-22T10:47:15.536Z,100945.72
2022-09-22T10:50:06.053Z,100946.84
2022-09-22T10:52:58.244Z,100949.94
2022-09-22T10:55:36.135Z,100948.28
2022-09-22T10:58:25.804Z,100953.16
2022-09-22T11:01:09.486Z,100953.03
2022-09-22T11:03:40.389Z,100945.03
2022-09-22T11:06:54.233Z,100949.00
2022-09-22T11:10:09.345Z,100947.22
2022-09-22T11:13:03.659Z,100951.84
2022-09-22T11:15:38.007Z,100938.31
2022-09-22T11:18:23.886Z,100942.84
2022-09-22T11:21:10.153Z,100945.78
2022-09-22T11:23:50.557Z,100944.47
2022-09-22T11:26:59.945Z,100949.13
2022-09-22T11:29:55.560Z,100949.94
2022-09-22T11:32:32.983Z,100949.69
2022-09-22T11:35:12.774Z,100954.47
2022-09-22T11:37:55.580Z,100949.19
2022-09-22T11:41:18.948Z,100946.50
2022-09-22T11:44:30.790Z,100933.56
2022-09-22T11:54:50.354Z,100929.97
2022-09-22T11:57:24.074Z,100940.03
2022-09-22T12:00:01.893Z,100941.66
2022-09-22T12:02:44.538Z,100938.22
2022-09-22T12:11:42.192Z,100928.19
2022-09-22T12:14:25.894Z,100930.09
2022-09-22T12:17:02.121Z,100930.72
2022-09-22T12:19:35.477Z,100929.03
2022-09-22T12:22:24.701Z,100932.59
2022-09-22T12:24:55.720Z,100932.59
2022-09-22T12:27:39.824Z,100923.00
2022-09-22T12:30:22.958Z,100937.97
2022-09-22T12:32:51.840Z,100932.75
2022-09-22T12:35:31.041Z,100931.13
2022-09-22T12:38:04.520Z,100934.53
2022-09-22T12:40:42.527Z,100923.28
2022-09-22T12:43:21.851Z,100925.84
2022-09-22T12:45:51.452Z,100921.84
2022-09-22T12:48:36.413Z,100928.56
2022-09-22T12:51:36.282Z,100940.38
2022-09-22T12:54:22.806Z,100949.16
2022-09-22T12:56:59.157Z,100950.06
2022-09-22T12:59:36.414Z,100938.13
2022-09-22T13:02:31.997Z,100947.19
2022-09-22T13:05:00.532Z,100950.38
2022-09-22T13:07:43.415Z,100949.41
2022-09-22T13:10:24.305Z,100945.25
2022-09-22T13:13:01.989Z,100952.34
2022-09-22T13:15:52.097Z,100951.28
2022-09-22T13:18:39.542Z,100945.25
2022-09-22T13:21:13.983Z,100954.91
2022-09-22T13:23:58.284Z,100949.63
2022-09-22T13:26:26.530Z,100941.97
2022-09-22T13:29:06.299Z,100938.72
2022-09-22T13:31:41.782Z,100935.22
2022-09-22T13:34:37.689Z,100936.91
2022-09-22T13:37:09.127Z,100928.44
2022-09-22T13:39:47.160Z,100925.19
2022-09-22T13:42:37.213Z,100930.47
2022-09-22T13:45:24.720Z,100924.81
2022-09-22T13:48:07.538Z,100923.09
2022-09-22T13:50:56.360Z,100929.56
2022-09-22T13:53:25.653Z,100929.72
2022-09-22T13:55:54.113Z,100930.16
2022-09-22T13:58:44.573Z,100930.00
2022-09-22T14:01:28.097Z,100937.38
2022-09-22T14:04:00.156Z,100934.66
2022-09-22T14:06:34.012Z,100934.31
2022-09-22T14:09:03.879Z,100929.94
2022-09-22T14:11:33.552Z,100933.78
2022-09-22T14:14:03.208Z,100933.44
2022-09-22T14:16:39.667Z,100938.03
2022-09-22T14:19:08.811Z,100938.88
2022-09-22T14:22:17.698Z,100942.13
2022-09-22T14:24:50.154Z,100941.28
2022-09-22T14:27:47.631Z,100947.81
2022-09-22T14:30:21.075Z,100954.47
2022-09-22T14:32:57.164Z,100950.31
2022-09-22T14:35:30.439Z,100945.75
2022-09-22T14:38:15.927Z,100945.91
2022-09-22T14:41:16.617Z,100949.34
2022-09-22T14:43:45.887Z,100947.44
2022-09-22T14:46:28.775Z,100949.16
2022-09-22T14:48:57.832Z,100945.19
2022-09-22T14:51:27.269Z,100949.59
2022-09-22T14:54:04.043Z,100950.66
2022-09-22T14:56:34.560Z,100950.06
2022-09-22T14:59:27.681Z,100947.09
2022-09-22T15:02:15.221Z,100956.78
2022-09-22T15:04:49.342Z,100956.38
2022-09-22T15:07:29.930Z,100958.50
2022-09-22T15:10:05.209Z,100952.66
2022-09-22T15:12:38.145Z,100944.72
2022-09-22T15:15:23.171Z,100946.19
2022-09-22T15:18:16.084Z,100935.53
2022-09-22T15:20:46.851Z,100944.97
2022-09-22T15:23:17.457Z,100938.50
2022-09-22T15:25:45.974Z,100936.63
2022-09-22T15:28:20.679Z,100932.25
2022-09-22T15:30:50.660Z,100939.34
2022-09-22T15:33:20.244Z,100939.59
2022-09-22T15:36:02.190Z,100935.63
2022-09-22T15:38:33.327Z,100943.34
2022-09-22T15:41:02.111Z,100945.03
2022-09-22T15:43:33.281Z,100946.09
2022-09-22T15:46:03.690Z,100949.41
2022-09-22T15:48:39.767Z,100950.28
2022-09-22T15:51:13.949Z,100955.06
2022-09-22T15:53:43.925Z,100953.19
2022-09-22T15:56:21.022Z,100953.19
2022-09-22T15:58:53.520Z,100949.44
2022-09-22T16:01:22.334Z,100949.06
2022-09-22T16:03:56.472Z,100951.09
2022-09-22T16:06:25.225Z,100952.56
2022-09-22T16:08:55.671Z,100952.34
2022-09-22T16:11:31.762Z,100947.56
2022-09-22T16:14:06.642Z,100949.25
2022-09-22T16:16:37.053Z,100944.44
2022-09-22T16:19:09.658Z,100945.69
2022-09-22T16:21:45.636Z,100951.09
2022-09-22T16:24:15.093Z,100944.41
2022-09-22T16:30:21.962Z,100945.69
2022-09-22T16:33:04.820Z,100943.59
2022-09-22T16:35:38.368Z,100944.41
2022-09-22T16:38:08.210Z,100949.44
2022-09-22T16:40:37.219Z,100947.56
2022-09-22T16:43:08.106Z,100942.56
2022-09-22T16:45:57.907Z,100937.75
2022-09-22T16:48:26.254Z,100942.34
2022-09-22T16:50:55.721Z,100947.56
2022-09-22T16:53:24.892Z,100947.78
2022-09-22T16:55:53.535Z,100949.84
2022-09-22T16:58:22.322Z,100955.28
2022-09-22T17:00:50.557Z,100955.09
2022-09-22T17:06:43.835Z,100960.28
2022-09-22T17:09:14.962Z,100958.22
2022-09-22T17:11:46.605Z,100957.59
2022-09-22T17:17:14.768Z,100954.03
2022-09-22T17:19:48.878Z,100963.41
2022-09-22T17:22:23.588Z,100957.78
2022-09-22T17:24:52.637Z,100963.63
2022-09-22T17:27:29.064Z,100965.91
2022-09-22T17:29:58.678Z,100974.47
2022-09-22T17:32:29.809Z,100969.03
2022-09-22T17:35:13.180Z,100974.47
2022-09-22T17:37:45.123Z,100968.44
2022-09-22T17:45:52.084Z,100975.91
2022-09-22T17:52:05.168Z,100970.28
2022-09-22T17:57:54.348Z,100971.31
2022-09-22T18:00:30.719Z,100976.75
2022-09-22T18:03:12.709Z,100974.88
2022-09-22T18:25:20.578Z,100976.53
2022-09-22T18:27:53.283Z,100977.34
2022-09-22T18:30:26.564Z,100984.84
2022-09-22T18:32:59.063Z,100981.91
2022-09-22T18:38:29.296Z,100976.72
2022-09-22T18:41:03.052Z,100972.34
2022-09-22T18:43:46.315Z,100979.19
2022-09-22T18:46:24.503Z,100982.75
2022-09-22T18:49:06.730Z,100981.47
2022-09-22T18:51:42.990Z,100975.25
2022-09-22T18:54:17.438Z,100984.41
2022-09-22T19:20:51.726Z,100978.50
2022-09-22T19:23:21.948Z,100976.03
2022-09-22T19:25:52.158Z,100982.69
2022-09-22T19:28:20.308Z,100983.88
2022-09-22T19:30:51.329Z,100984.56
2022-09-22T19:33:19.483Z,100984.28
2022-09-22T19:35:47.538Z,100976.78
2022-09-22T19:38:16.541Z,100977.63
2022-09-22T19:40:44.712Z,100983.50
2022-09-22T19:43:12.850Z,100980.94
2022-09-22T19:45:41.722Z,100977.19
2022-09-22T19:48:13.561Z,100980.09
2022-09-22T19:50:43.332Z,100971.75
2022-09-22T19:53:11.790Z,100979.88
2022-09-22T19:55:40.265Z,100975.09
2022-09-22T19:58:08.030Z,100975.72
2022-09-22T20:00:36.628Z,100970.09
2022-09-22T20:03:04.713Z,100958.44
2022-09-22T20:05:38.601Z,100957.66
2022-09-22T20:08:15.894Z,100961.97
2022-09-22T20:10:47.326Z,100949.28
2022-09-22T20:13:34.225Z,100956.78
2022-09-22T20:16:04.166Z,100965.09
2022-09-22T20:18:35.568Z,100960.50
2022-09-22T20:24:04.580Z,100956.13
2022-09-22T20:26:34.012Z,100955.28
2022-09-22T20:29:02.380Z,100965.53
2022-09-22T20:31:30.251Z,100966.31
2022-09-22T20:33:58.489Z,100961.75
2022-09-22T20:36:27.367Z,100966.31
2022-09-22T20:38:55.179Z,100966.31
2022-09-22T20:41:23.824Z,100954.81
2022-09-22T20:43:52.197Z,100957.94
2022-09-22T20:46:20.682Z,100956.94
2022-09-22T20:48:49.006Z,100965.63
2022-09-22T20:51:19.069Z,100943.97
2022-09-22T20:53:50.656Z,100953.34
2022-09-22T20:56:18.507Z,100948.31
2022-09-22T20:58:46.822Z,100955.41
2022-09-22T21:01:17.061Z,100948.72
2022-09-22T21:03:46.034Z,100950.38
2022-09-22T21:06:15.973Z,100944.56
2022-09-22T21:09:02.680Z,100940.38
2022-09-22T21:11:31.305Z,100944.50
2022-09-22T21:14:03.318Z,100942.25
2022-09-22T21:16:36.394Z,100942.69
2022-09-22T21:19:04.670Z,100947.84
2022-09-22T21:21:33.967Z,100942.47
2022-09-22T21:24:02.166Z,100941.22
2022-09-22T21:26:31.217Z,100936.19
2022-09-22T21:29:00.772Z,100932.84
2022-09-22T21:31:29.104Z,100943.94
2022-09-22T21:33:57.183Z,100936.25
2022-09-22T21:36:25.361Z,100929.56
2022-09-22T21:38:58.108Z,100939.75
2022-09-22T21:41:28.776Z,100941.22
2022-09-22T21:43:56.609Z,100942.47
2022-09-22T21:46:29.867Z,100945.16
2022-09-22T21:49:02.841Z,100935.38
2022-09-22T21:51:36.916Z,100935.13
2022-09-22T21:54:05.759Z,100939.50
2022-09-22T21:56:34.778Z,100940.72
2022-09-22T21:59:03.747Z,100934.91
2022-09-22T22:01:38.958Z,100939.03
2022-09-22T22:04:13.994Z,100939.25
2022-09-22T22:06:44.432Z,100940.66
2022-09-22T22:09:19.700Z,100931.38
2022-09-22T22:11:56.708Z,100926.94
2022-09-22T22:14:28.309Z,100924.03
2022-09-22T22:16:56.168Z,100919.66
2022-09-22T22:19:27.109Z,100913.75
2022-09-22T22:21:55.488Z,100914.31
2022-09-22T22:24:30.387Z,100920.59
2022-09-22T22:27:06.554Z,100919.31
2022-09-22T22:29:35.186Z,100911.22
2022-09-22T22:32:05.548Z,100903.94
2022-09-22T22:34:33.878Z,100899.75
2022-09-22T22:37:01.676Z,100891.91
2022-09-22T22:39:30.019Z,100886.88
2022-09-22T22:41:58.075Z,100885.22
2022-09-22T22:44:25.806Z,100887.66
2022-09-22T22:46:53.652Z,100888.69
2022-09-22T22:49:21.656Z,100893.88
2022-09-22T22:51:50.172Z,100888.47
2022-09-22T22:54:17.941Z,100892.84
2022-09-22T22:56:49.011Z,100890.75
2022-09-22T22:59:19.347Z,100894.06
2022-09-22T23:01:46.963Z,100883.47
2022-09-22T23:04:16.901Z,100884.28
2022-09-22T23:06:47.990Z,100897.06
2022-09-22T23:09:17.014Z,100893.72
2022-09-22T23:11:46.508Z,100888.94
2022-09-22T23:14:16.466Z,100890.72
2022-09-22T23:16:47.176Z,100887.38
2022-09-22T23:19:17.750Z,100880.28
2022-09-22T23:21:46.505Z,100873.22
2022-09-22T23:24:16.737Z,100883.78
2022-09-22T23:26:47.911Z,100879.28
2022-09-22T23:29:15.743Z,100865.94
2022-09-22T23:31:44.046Z,100867.09
2022-09-22T23:34:11.614Z,100855.41
2022-09-22T23:36:39.904Z,100857.91
2022-09-22T23:39:07.554Z,100859.97
2022-09-22T23:41:37.044Z,100854.63
2022-09-22T23:44:09.617Z,100854.19
2022-09-22T23:46:38.490Z,100849.75
2022-09-22T23:49:06.555Z,100847.13
2022-09-22T23:51:35.739Z,100848.38
2022-09-22T23:54:03.317Z,100842.16
2022-09-22T23:56:37.676Z,100845.09
2022-09-22T23:59:05.544Z,100842.59
